createdAt,value
2023-01-26T00:01:59.004Z,95816.00
2023-01-26T00:06:05.851Z,95822.00
2023-01-26T00:10:09.689Z,95815.00
2023-01-26T00:14:12.716Z,95806.00
2023-01-26T00:18:16.057Z,95801.00
2023-01-26T00:22:20.233Z,95803.00
2023-01-26T00:26:25.110Z,95795.00
2023-01-26T00:30:27.944Z,95792.00
2023-01-26T00:34:30.744Z,95789.00
2023-01-26T00:38:35.026Z,95786.00
2023-01-26T00:42:37.968Z,95791.00
2023-01-26T00:46:40.802Z,95806.00
2023-01-26T00:50:43.657Z,95787.00
2023-01-26T00:54:47.785Z,95792.00
2023-01-26T00:58:50.835Z,95787.00
2023-01-26T01:02:53.891Z,95777.00
2023-01-26T01:06:56.759Z,95781.00
2023-01-26T01:11:09.892Z,95773.00
2023-01-26T01:15:12.995Z,95777.00
2023-01-26T01:19:16.859Z,95775.00
2023-01-26T01:23:20.105Z,95780.00
2023-01-26T01:27:24.376Z,95780.00
2023-01-26T01:31:29.314Z,95775.00
2023-01-26T01:35:34.439Z,95778.00
2023-01-26T01:39:37.171Z,95773.00
2023-01-26T01:43:41.429Z,95769.00
2023-01-26T01:47:44.247Z,95778.00
2023-01-26T01:51:53.437Z,95770.00
2023-01-26T01:55:59.327Z,95761.00
2023-01-26T02:00:07.723Z,95768.00
2023-01-26T02:04:16.889Z,95764.00
2023-01-26T02:08:20.465Z,95761.00
2023-01-26T02:12:28.438Z,95766.00
2023-01-26T02:16:32.597Z,95753.00
2023-01-26T02:20:43.641Z,95745.00
2023-01-26T02:24:46.964Z,95740.00
2023-01-26T02:28:51.303Z,95737.00
2023-01-26T02:32:54.197Z,95733.00
2023-01-26T02:36:59.074Z,95732.00
2023-01-26T02:41:06.705Z,95725.00
2023-01-26T02:45:15.154Z,95709.00
2023-01-26T02:49:36.515Z,95706.00
2023-01-26T02:53:39.569Z,95706.00
2023-01-26T02:57:43.187Z,95693.00
2023-01-26T03:01:49.474Z,95688.00
2023-01-26T03:05:54.150Z,95690.00
2023-01-26T03:09:58.730Z,95687.00
2023-01-26T03:14:01.524Z,95682.00
2023-01-26T03:18:24.634Z,95675.00
2023-01-26T03:22:44.841Z,95678.00
2023-01-26T03:27:05.236Z,95679.00
2023-01-26T03:31:09.020Z,95677.00
2023-01-26T03:35:22.453Z,95676.00
2023-01-26T03:39:42.865Z,95675.00
2023-01-26T03:44:03.760Z,95675.00
2023-01-26T03:48:25.998Z,95671.00
2023-01-26T03:52:49.920Z,95669.00
2023-01-26T03:56:52.987Z,95666.00
2023-01-26T04:00:55.807Z,95673.00
2023-01-26T04:05:16.456Z,95672.00
2023-01-26T04:09:26.825Z,95678.00
2023-01-26T04:13:47.048Z,95668.00
2023-01-26T04:18:14.541Z,95660.00
2023-01-26T04:22:17.647Z,95654.00
2023-01-26T04:26:26.154Z,95651.00
2023-01-26T04:30:30.232Z,95654.00
2023-01-26T04:34:33.448Z,95654.00
2023-01-26T04:38:38.846Z,95659.00
2023-01-26T04:42:43.293Z,95652.00
2023-01-26T04:46:48.174Z,95644.00
2023-01-26T04:50:55.119Z,95650.00
2023-01-26T04:54:58.848Z,95647.00
2023-01-26T04:59:05.677Z,95654.00
2023-01-26T05:03:10.465Z,95643.00
2023-01-26T05:07:14.040Z,95643.00
2023-01-26T05:11:17.112Z,95655.00
2023-01-26T05:15:43.905Z,95658.00
2023-01-26T05:20:07.771Z,95659.00
2023-01-26T05:24:15.962Z,95652.00
2023-01-26T05:28:38.652Z,95663.00
2023-01-26T05:32:42.877Z,95646.00
2023-01-26T05:36:45.882Z,95651.00
2023-01-26T05:40:48.772Z,95657.00
2023-01-26T05:44:52.743Z,95650.00
2023-01-26T05:48:57.849Z,95658.00
2023-01-26T05:53:02.963Z,95656.00
2023-01-26T05:57:11.955Z,95654.00
2023-01-26T06:01:19.975Z,95654.00
2023-01-26T06:05:30.772Z,95652.00
2023-01-26T06:09:34.340Z,95654.00
2023-01-26T06:13:45.214Z,95659.00
2023-01-26T06:17:54.583Z,95667.00
2023-01-26T06:21:58.865Z,95662.00
2023-01-26T06:26:02.138Z,95672.00
2023-01-26T06:30:07.107Z,95663.00
2023-01-26T06:34:11.038Z,95656.00
2023-01-26T06:38:18.207Z,95649.00
2023-01-26T06:42:21.101Z,95656.00
2023-01-26T06:46:24.145Z,95650.00
2023-01-26T06:50:34.456Z,95656.00
2023-01-26T06:54:38.673Z,95650.00
2023-01-26T06:58:57.588Z,95639.00
2023-01-26T07:03:18.722Z,95644.00
2023-01-26T07:07:21.494Z,95653.00
2023-01-26T07:11:26.329Z,95654.00
2023-01-26T07:15:29.083Z,95654.00
2023-01-26T07:19:33.297Z,95650.00
2023-01-26T07:23:36.102Z,95649.00
2023-01-26T07:27:40.244Z,95647.00
2023-01-26T07:31:44.502Z,95645.00
2023-01-26T07:35:47.375Z,95643.00
2023-01-26T07:39:50.312Z,95648.00
2023-01-26T07:43:54.519Z,95645.00
2023-01-26T07:47:57.546Z,95640.00
2023-01-26T07:52:00.339Z,95638.00
2023-01-26T07:56:07.987Z,95647.00
2023-01-26T08:00:13.641Z,95635.00
2023-01-26T08:04:16.526Z,95631.00
2023-01-26T08:08:19.339Z,95639.00
2023-01-26T08:12:22.104Z,95638.00
2023-01-26T08:16:26.197Z,95643.00
2023-01-26T08:20:28.946Z,95630.00
2023-01-26T08:24:31.700Z,95621.00
2023-01-26T08:28:34.833Z,95622.00
2023-01-26T08:32:38.960Z,95614.00
2023-01-26T08:36:41.790Z,95625.00
2023-01-26T08:40:44.590Z,95614.00
2023-01-26T08:44:47.399Z,95616.00
2023-01-26T08:48:51.587Z,95632.00
2023-01-26T08:52:57.678Z,95616.00
2023-01-26T08:57:00.468Z,95625.00
2023-01-26T09:01:05.954Z,95626.00
2023-01-26T09:05:11.887Z,95607.00
2023-01-26T09:09:15.366Z,95620.00
2023-01-26T09:13:18.167Z,95624.00
2023-01-26T09:17:20.893Z,95624.00
2023-01-26T09:21:25.187Z,95624.00
2023-01-26T09:25:28.051Z,95632.00
2023-01-26T09:29:30.820Z,95634.00
2023-01-26T09:33:33.634Z,95640.00
2023-01-26T09:37:37.696Z,95628.00
2023-01-26T09:42:03.111Z,95634.00
2023-01-26T09:46:16.871Z,95634.00
2023-01-26T09:50:25.669Z,95638.00
2023-01-26T09:54:35.056Z,95621.00
2023-01-26T09:58:40.848Z,95621.00
2023-01-26T10:02:54.587Z,95621.00
2023-01-26T10:06:58.712Z,95631.00
2023-01-26T10:11:27.990Z,95621.00
2023-01-26T10:15:32.821Z,95614.00
2023-01-26T10:19:40.382Z,95623.00
2023-01-26T10:23:49.076Z,95617.00
2023-01-26T10:27:53.836Z,95612.00
2023-01-26T10:31:56.597Z,95613.00
2023-01-26T10:35:59.799Z,95614.00
2023-01-26T10:40:04.052Z,95610.00
2023-01-26T10:44:25.557Z,95609.00
2023-01-26T10:48:29.188Z,95603.00
2023-01-26T10:52:31.925Z,95609.00
2023-01-26T10:56:37.260Z,95612.00
2023-01-26T11:00:42.388Z,95609.00
2023-01-26T11:05:02.967Z,95610.00
2023-01-26T11:09:18.567Z,95597.00
2023-01-26T11:13:22.622Z,95588.00
2023-01-26T11:17:31.996Z,95586.00
2023-01-26T11:21:41.443Z,95585.00
2023-01-26T11:25:55.150Z,95599.00
2023-01-26T11:30:11.063Z,95605.00
2023-01-26T11:34:26.582Z,95596.00
2023-01-26T11:38:37.626Z,95593.00
2023-01-26T11:42:50.485Z,95592.00
2023-01-26T11:47:01.579Z,95592.00
2023-01-26T11:51:13.717Z,95590.00
2023-01-26T11:55:26.454Z,95585.00
2023-01-26T11:59:36.631Z,95591.00
2023-01-26T12:03:45.260Z,95580.00
2023-01-26T12:07:55.589Z,95586.00
2023-01-26T12:12:04.009Z,95571.00
2023-01-26T12:16:15.985Z,95571.00
2023-01-26T12:20:28.306Z,95575.00
2023-01-26T12:25:08.119Z,95558.00
2023-01-26T12:29:09.664Z,95556.00
2023-01-26T12:33:12.801Z,95551.00
2023-01-26T12:37:42.709Z,95548.00
2023-01-26T12:42:04.118Z,95545.00
2023-01-26T12:46:09.026Z,95544.00
2023-01-26T12:50:17.475Z,95556.00
2023-01-26T12:54:27.469Z,95550.00
2023-01-26T12:58:36.047Z,95547.00
2023-01-26T13:02:39.111Z,95542.00
2023-01-26T13:06:42.531Z,95557.00
2023-01-26T13:10:49.576Z,95545.00
2023-01-26T13:15:01.945Z,95532.00
2023-01-26T13:19:04.843Z,95543.00
2023-01-26T13:23:52.693Z,95536.00
2023-01-26T13:27:58.031Z,95541.00
2023-01-26T13:32:18.879Z,95533.00
2023-01-26T13:36:24.300Z,95543.00
2023-01-26T13:40:31.739Z,95544.00
2023-01-26T13:44:41.317Z,95541.00
2023-01-26T13:48:47.862Z,95537.00
2023-01-26T13:52:51.016Z,95537.00
2023-01-26T13:57:05.178Z,95529.00
2023-01-26T14:01:14.198Z,95539.00
2023-01-26T14:05:23.490Z,95538.00
2023-01-26T14:09:29.041Z,95536.00
2023-01-26T14:13:36.599Z,95538.00
2023-01-26T14:17:49.736Z,95526.00
2023-01-26T14:21:55.950Z,95534.00
2023-01-26T14:25:59.420Z,95532.00
2023-01-26T14:30:04.992Z,95541.00
2023-01-26T14:34:11.191Z,95534.00
2023-01-26T14:38:17.854Z,95540.00
2023-01-26T14:42:21.700Z,95543.00
2023-01-26T14:46:28.517Z,95539.00
2023-01-26T14:50:32.325Z,95541.00
2023-01-26T14:54:39.425Z,95542.00
2023-01-26T14:58:42.529Z,95538.00
2023-01-26T15:02:49.119Z,95524.00
2023-01-26T15:06:51.929Z,95521.00
2023-01-26T15:11:18.144Z,95514.00
2023-01-26T15:15:21.809Z,95525.00
2023-01-26T15:19:27.208Z,95520.00
2023-01-26T15:23:33.108Z,95522.00
2023-01-26T15:27:37.958Z,95526.00
2023-01-26T15:31:43.334Z,95538.00
2023-01-26T15:35:58.525Z,95547.00
2023-01-26T15:40:01.303Z,95552.00
2023-01-26T15:44:05.911Z,95559.00
2023-01-26T15:48:08.675Z,95558.00
2023-01-26T15:52:15.269Z,95554.00
2023-01-26T15:56:18.091Z,95560.00
2023-01-26T16:00:24.045Z,95559.00
2023-01-26T16:04:28.171Z,95563.00
2023-01-26T16:08:30.933Z,95551.00
2023-01-26T16:12:33.840Z,95554.00
2023-01-26T16:16:40.390Z,95552.00
2023-01-26T16:20:45.707Z,95557.00
2023-01-26T16:24:48.429Z,95556.00
2023-01-26T16:28:51.128Z,95557.00
2023-01-26T16:32:55.295Z,95544.00
2023-01-26T16:36:58.092Z,95562.00
2023-01-26T16:41:00.945Z,95568.00
2023-01-26T16:45:03.993Z,95556.00
2023-01-26T16:49:08.861Z,95547.00
2023-01-26T16:53:19.307Z,95552.00
2023-01-26T16:57:22.115Z,95560.00
2023-01-26T17:01:28.256Z,95565.00
2023-01-26T17:05:32.454Z,95555.00
2023-01-26T17:09:35.486Z,95559.00
2023-01-26T17:13:38.270Z,95567.00
2023-01-26T17:17:42.330Z,95572.00
2023-01-26T17:21:46.506Z,95562.00
2023-01-26T17:25:49.402Z,95554.00
2023-01-26T17:29:52.403Z,95562.00
2023-01-26T17:33:56.073Z,95551.00
2023-01-26T17:38:00.228Z,95562.00
2023-01-26T17:42:03.061Z,95562.00
2023-01-26T17:46:07.889Z,95559.00
2023-01-26T17:50:11.968Z,95570.00
2023-01-26T17:54:16.101Z,95564.00
2023-01-26T17:58:18.911Z,95562.00
2023-01-26T18:02:21.741Z,95557.00
2023-01-26T18:06:24.617Z,95564.00
2023-01-26T18:10:30.413Z,95565.00
2023-01-26T18:14:33.206Z,95563.00
2023-01-26T18:18:36.617Z,95565.00
2023-01-26T18:22:39.413Z,95556.00
2023-01-26T18:26:43.575Z,95562.00
2023-01-26T18:30:46.560Z,95559.00
2023-01-26T18:34:49.371Z,95563.00
2023-01-26T18:38:53.476Z,95579.00
2023-01-26T18:42:58.081Z,95551.00
2023-01-26T18:47:00.870Z,95570.00
2023-01-26T18:51:04.551Z,95567.00
2023-01-26T18:55:08.794Z,95569.00
2023-01-26T18:59:13.006Z,95570.00
2023-01-26T19:03:17.430Z,95567.00
2023-01-26T19:07:42.681Z,95565.00
2023-01-26T19:11:45.715Z,95566.00
2023-01-26T19:15:50.475Z,95555.00
2023-01-26T19:19:53.216Z,95546.00
2023-01-26T19:23:58.411Z,95561.00
2023-01-26T19:28:01.270Z,95560.00
2023-01-26T19:32:05.902Z,95557.00
2023-01-26T19:36:09.790Z,95555.00
2023-01-26T19:40:14.900Z,95571.00
2023-01-26T19:44:17.663Z,95568.00
2023-01-26T19:48:23.505Z,95558.00
2023-01-26T19:52:26.357Z,95565.00
2023-01-26T19:56:31.041Z,95556.00
2023-01-26T20:00:33.881Z,95561.00
2023-01-26T20:04:38.232Z,95545.00
2023-01-26T20:08:41.032Z,95560.00
2023-01-26T20:12:43.824Z,95558.00
2023-01-26T20:16:46.681Z,95565.00
2023-01-26T20:20:52.194Z,95544.00
2023-01-26T20:24:55.502Z,95557.00
2023-01-26T20:28:58.686Z,95555.00
2023-01-26T20:33:02.214Z,95555.00
2023-01-26T20:37:06.401Z,95548.00
2023-01-26T20:41:09.855Z,95555.00
2023-01-26T20:45:13.396Z,95542.00
2023-01-26T20:49:18.500Z,95547.00
2023-01-26T20:53:22.668Z,95551.00
2023-01-26T20:57:25.475Z,95548.00
2023-01-26T21:01:28.507Z,95546.00
2023-01-26T21:05:31.435Z,95540.00
2023-01-26T21:09:35.693Z,95536.00
2023-01-26T21:13:41.090Z,95540.00
2023-01-26T21:17:43.809Z,95536.00
2023-01-26T21:21:46.634Z,95528.00
2023-01-26T21:25:51.107Z,95541.00
2023-01-26T21:29:53.893Z,95532.00
2023-01-26T21:33:57.444Z,95535.00
2023-01-26T21:38:00.263Z,95532.00
2023-01-26T21:42:04.744Z,95537.00
2023-01-26T21:46:07.554Z,95535.00
2023-01-26T21:50:11.621Z,95526.00
2023-01-26T21:54:15.701Z,95533.00
2023-01-26T21:58:37.575Z,95532.00
2023-01-26T22:02:40.562Z,95536.00
2023-01-26T22:06:43.596Z,95538.00
2023-01-26T22:10:54.047Z,95537.00
2023-01-26T22:14:58.190Z,95529.00
2023-01-26T22:19:00.934Z,95524.00
2023-01-26T22:23:03.981Z,95530.00
2023-01-26T22:27:08.222Z,95524.00
2023-01-26T22:31:12.771Z,95526.00
2023-01-26T22:35:15.820Z,95528.00
2023-01-26T22:39:19.118Z,95513.00
2023-01-26T22:43:22.395Z,95515.00
2023-01-26T22:47:26.589Z,95524.00
2023-01-26T22:51:30.875Z,95530.00
2023-01-26T22:55:33.697Z,95520.00
2023-01-26T22:59:36.495Z,95516.00
2023-01-26T23:03:41.379Z,95519.00
2023-01-26T23:07:44.213Z,95499.00
2023-01-26T23:11:47.000Z,95509.00
2023-01-26T23:15:49.760Z,95503.00
2023-01-26T23:19:55.126Z,95508.00
2023-01-26T23:23:58.472Z,95512.00
2023-01-26T23:28:03.304Z,95508.00
2023-01-26T23:32:06.798Z,95502.00
2023-01-26T23:36:13.477Z,95497.00
2023-01-26T23:40:16.431Z,95501.00
2023-01-26T23:44:19.189Z,95501.00
2023-01-26T23:48:22.005Z,95501.00
2023-01-26T23:52:26.133Z,95489.00
2023-01-26T23:56:28.925Z,95481.00
